Time;durP1;ratioP1;P1;durP2;ratioP2;P2;SDS_P1;SDS_P2;PMS_P1;PMS_P2;Temp;Humidity;BMP_temperature;BMP_pressure;BME280_temperature;BME280_humidity;BME280_pressure;Samples;Min_cycle;Max_cycle;Signal;HPM_P1;HPM_P2
2021/08/05 00:02:30;;;;;;;8.27;7.47;;;;;;;16.86;100.00;95677.03;3589800;39;20405;-58
2021/08/05 00:04:58;;;;;;;9.52;8.55;;;;;;;16.84;100.00;95683.75;3593223;39;20062;-58
2021/08/05 00:07:25;;;;;;;10.48;9.25;;;;;;;16.78;100.00;95682.28;3589195;39;20050;-58
2021/08/05 00:09:53;;;;;;;11.70;10.50;;;;;;;16.72;100.00;95689.59;3571551;39;20036;-59
2021/08/05 00:12:21;;;;;;;10.27;9.45;;;;;;;16.67;100.00;95687.06;3579405;40;20763;-58
2021/08/05 00:14:49;;;;;;;10.38;9.45;;;;;;;16.69;100.00;95684.88;3590405;39;20381;-58
2021/08/05 00:17:16;;;;;;;12.80;11.60;;;;;;;16.67;100.00;95674.53;3572814;39;20060;-58
2021/08/05 00:19:44;;;;;;;12.30;11.15;;;;;;;16.66;100.00;95672.19;3583333;39;20405;-58
2021/08/05 00:22:12;;;;;;;10.25;9.25;;;;;;;16.59;100.00;95664.59;3578805;39;20049;-58
2021/08/05 00:24:39;;;;;;;11.25;10.00;;;;;;;16.58;100.00;95661.13;3591257;39;20050;-58
2021/08/05 00:27:07;;;;;;;10.75;9.65;;;;;;;16.60;100.00;95658.97;3577942;39;20483;-59
2021/08/05 00:29:35;;;;;;;10.32;9.38;;;;;;;16.63;100.00;95654.91;3574507;39;20056;-58
2021/08/05 00:32:02;;;;;;;12.68;11.48;;;;;;;16.67;100.00;95655.13;3579970;39;20529;-58
2021/08/05 00:34:30;;;;;;;9.73;8.77;;;;;;;16.64;100.00;95658.38;3581401;40;20044;-58
2021/08/05 00:36:58;;;;;;;9.07;8.38;;;;;;;16.66;100.00;95653.53;3577495;39;20056;-58
2021/08/05 00:39:26;;;;;;;10.27;9.25;;;;;;;16.66;100.00;95661.53;3581823;40;20052;-58
2021/08/05 00:41:55;;;;;;;12.75;10.77;;;;;;;16.64;100.00;95667.13;3588384;39;20058;-58
2021/08/05 00:44:22;;;;;;;12.00;10.90;;;;;;;16.54;100.00;95657.53;3577349;39;20058;-59
2021/08/05 00:46:50;;;;;;;13.18;11.77;;;;;;;16.51;100.00;95652.78;3576289;39;20053;-58
2021/08/05 00:49:18;;;;;;;12.38;9.93;;;;;;;16.49;100.00;95654.97;3582128;39;20495;-58
2021/08/05 00:51:46;;;;;;;12.80;9.82;;;;;;;16.48;100.00;95641.97;3589228;39;20240;-58
2021/08/05 00:54:15;;;;;;;10.23;9.23;;;;;;;16.46;100.00;95634.25;3582945;39;20048;-59
2021/08/05 00:56:43;;;;;;;11.20;10.02;;;;;;;16.43;100.00;95635.66;3579857;39;20073;-58
2021/08/05 00:59:11;;;;;;;9.93;8.93;;;;;;;16.47;100.00;95635.06;3578436;40;20040;-59
2021/08/05 01:01:55;;;;;;;9.10;8.30;;;;;;;16.47;100.00;95635.81;3582128;39;20333;-59
2021/08/05 01:04:24;;;;;;;10.98;9.13;;;;;;;16.46;100.00;95636.91;3573533;39;20040;-59
2021/08/05 01:07:39;;;;;;;8.40;7.57;;;;;;;16.49;100.00;95640.88;3573373;40;20571;-58
2021/08/05 01:10:24;;;;;;;11.88;10.75;;;;;;;16.51;100.00;95646.66;3584279;39;20036;-59
2021/08/05 01:13:06;;;;;;;10.05;9.25;;;;;;;16.51;100.00;95652.78;3590797;39;20051;-58
2021/08/05 01:15:34;;;;;;;9.70;8.82;;;;;;;16.48;100.00;95649.94;3590615;39;20055;-59
2021/08/05 01:18:08;;;;;;;7.45;6.85;;;;;;;16.51;100.00;95630.69;3598962;39;20063;-59
2021/08/05 01:20:41;;;;;;;6.57;5.78;;;;;;;16.45;100.00;95628.16;3592222;39;20051;-59
2021/08/05 01:23:32;;;;;;;6.72;6.03;;;;;;;16.44;100.00;95625.78;3602113;39;20074;-59
2021/08/05 01:26:29;;;;;;;7.45;6.75;;;;;;;16.44;100.00;95631.09;3603594;39;20061;-59
2021/08/05 01:28:58;;;;;;;;;;;;;;;16.41;100.00;95616.53;3602937;39;20053;-59
2021/08/05 01:31:29;;;;;;;7.82;6.85;;;;;;;16.37;100.00;95623.53;3592855;39;19939;-59
2021/08/05 01:33:57;;;;;;;7.75;6.95;;;;;;;16.38;100.00;95611.00;3591473;39;20050;-60
2021/08/05 01:36:29;;;;;;;7.25;6.65;;;;;;;16.37;100.00;95609.44;3589818;39;20047;-59
2021/08/05 01:38:58;;;;;;;7.43;6.82;;;;;;;16.38;100.00;95595.81;3603046;39;20212;-59
2021/08/05 01:41:28;;;;;;;9.38;6.47;;;;;;;16.37;100.00;95590.81;3600255;39;20044;-58
2021/08/05 01:43:57;;;;;;;6.88;6.28;;;;;;;16.36;100.00;95586.56;3584468;39;20047;-59
2021/08/05 01:46:25;;;;;;;8.30;7.55;;;;;;;16.36;100.00;95583.91;3602180;39;20052;-59
2021/08/05 01:48:55;;;;;;;7.95;6.70;;;;;;;16.34;100.00;95589.53;3601991;39;20814;-57
2021/08/05 01:51:23;;;;;;;7.80;7.00;;;;;;;16.33;100.00;95603.13;3601400;39;20037;-59
2021/08/05 01:53:53;;;;;;;8.48;7.32;;;;;;;16.31;100.00;95600.00;3591821;39;20047;-57
2021/08/05 01:56:24;;;;;;;8.13;6.78;;;;;;;16.35;100.00;95592.97;3583479;39;20043;-58
2021/08/05 01:58:57;;;;;;;8.57;7.82;;;;;;;16.33;100.00;95600.47;3602898;39;20039;-58
2021/08/05 02:01:25;;;;;;;8.32;7.63;;;;;;;16.27;100.00;95595.28;3589444;39;20042;-59
2021/08/05 02:03:59;;;;;;;8.85;7.93;;;;;;;16.23;100.00;95596.19;3583776;39;20052;-59
2021/08/05 02:06:28;;;;;;;8.05;7.13;;;;;;;16.20;100.00;95594.88;3591197;39;20240;-58
2021/08/05 02:09:01;;;;;;;11.35;6.10;;;;;;;16.20;100.00;95594.09;3592189;39;20043;-58
2021/08/05 02:11:33;;;;;;;8.65;7.68;;;;;;;16.19;100.00;95587.22;3601417;39;20051;-58
2021/08/05 02:14:02;;;;;;;8.88;7.60;;;;;;;16.16;100.00;95587.78;3581789;39;20065;-59
2021/08/05 02:16:32;;;;;;;9.52;7.72;;;;;;;16.17;100.00;95586.72;3591803;39;20051;-58
2021/08/05 02:19:00;;;;;;;11.68;7.43;;;;;;;16.16;100.00;95577.16;3578124;39;20043;-58
2021/08/05 02:21:29;;;;;;;7.63;7.03;;;;;;;16.18;100.00;95582.97;3583969;39;20060;-58
2021/08/05 02:23:58;;;;;;;9.80;8.95;;;;;;;16.19;100.00;95579.22;3589464;39;20052;-58
2021/08/05 02:26:27;;;;;;;10.15;9.25;;;;;;;16.16;100.00;95577.97;3591977;39;20304;-58
2021/08/05 02:28:56;;;;;;;9.68;8.85;;;;;;;16.17;100.00;95579.53;3602546;39;20394;-58
2021/08/05 02:31:24;;;;;;;11.85;8.07;;;;;;;16.17;100.00;95571.56;3582586;39;20332;-58
2021/08/05 02:33:55;;;;;;;8.75;7.55;;;;;;;16.16;100.00;95569.97;3589223;39;20048;-58
2021/08/05 02:36:23;;;;;;;8.40;7.38;;;;;;;16.16;100.00;95562.00;3599369;39;20060;-58
2021/08/05 02:38:51;;;;;;;7.68;7.05;;;;;;;16.17;100.00;95562.75;3592660;39;20053;-58
2021/08/05 02:41:20;;;;;;;7.43;6.28;;;;;;;16.19;100.00;95566.69;3587730;39;20050;-58
2021/08/05 02:43:49;;;;;;;8.05;7.35;;;;;;;16.19;100.00;95556.03;3583026;39;20050;-58
2021/08/05 02:46:17;;;;;;;8.85;8.05;;;;;;;16.18;100.00;95549.19;3596089;39;20064;-58
2021/08/05 02:48:46;;;;;;;7.90;7.10;;;;;;;16.19;100.00;95552.63;3593013;39;20077;-58
2021/08/05 02:51:14;;;;;;;9.07;7.18;;;;;;;16.20;100.00;95548.88;3602568;39;20052;-58
2021/08/05 02:53:43;;;;;;;9.10;8.30;;;;;;;16.18;100.00;95557.16;3600247;39;20052;-59
2021/08/05 02:56:12;;;;;;;9.85;8.95;;;;;;;16.19;100.00;95552.63;3583411;39;20044;-58
2021/08/05 02:58:41;;;;;;;8.85;7.97;;;;;;;16.20;100.00;95546.19;3603028;39;20589;-59
2021/08/05 03:01:11;;;;;;;9.73;8.77;;;;;;;16.19;100.00;95550.72;3587516;39;20044;-58
2021/08/05 03:03:41;;;;;;;9.07;8.18;;;;;;;16.18;100.00;95549.19;3584121;39;20050;-58
2021/08/05 03:06:10;;;;;;;8.80;8.10;;;;;;;16.16;100.00;95556.66;3589398;39;20560;-58
2021/08/05 03:08:40;;;;;;;11.15;8.52;;;;;;;16.12;100.00;95555.69;3601120;39;20051;-58
2021/08/05 03:11:08;;;;;;;13.63;11.50;;;;;;;16.10;100.00;95552.53;3577032;39;20032;-58
2021/08/05 03:13:36;;;;;;;11.30;10.18;;;;;;;16.07;100.00;95550.47;3587005;39;20391;-58
2021/08/05 03:16:05;;;;;;;8.02;7.25;;;;;;;16.07;100.00;95551.25;3588847;39;20048;-58
2021/08/05 03:18:33;;;;;;;9.65;8.82;;;;;;;16.12;100.00;95553.03;3576814;39;20185;-58
2021/08/05 03:21:00;;;;;;;9.52;8.00;;;;;;;16.11;100.00;95551.44;3587159;39;20048;-58
2021/08/05 03:23:28;;;;;;;9.95;8.82;;;;;;;16.12;100.00;95551.13;3580549;39;20048;-58
2021/08/05 03:25:56;;;;;;;16.55;8.77;;;;;;;16.13;100.00;95557.25;3586699;39;20056;-59
2021/08/05 03:28:24;;;;;;;9.77;8.95;;;;;;;16.14;100.00;95548.19;3580089;39;20044;-58
2021/08/05 03:30:52;;;;;;;12.90;8.82;;;;;;;16.17;100.00;95552.94;3572470;39;20048;-59
2021/08/05 03:33:20;;;;;;;9.00;8.07;;;;;;;16.19;100.00;95542.75;3564765;39;20406;-58
2021/08/05 03:35:48;;;;;;;8.48;7.78;;;;;;;16.14;100.00;95518.94;3582563;39;20055;-59
2021/08/05 03:38:15;;;;;;;9.25;7.97;;;;;;;16.21;100.00;95523.84;3586946;39;20054;-58
2021/08/05 03:40:43;;;;;;;11.02;8.15;;;;;;;16.21;100.00;95524.59;3590406;39;20044;-58
2021/08/05 03:43:11;;;;;;;10.55;9.57;;;;;;;16.22;100.00;95522.75;3579779;39;20054;-58
2021/08/05 03:45:39;;;;;;;12.52;11.15;;;;;;;16.21;100.00;95527.25;3589660;39;20058;-58
2021/08/05 03:48:07;;;;;;;12.10;11.00;;;;;;;16.18;100.00;95524.44;3578269;39;20056;-58
2021/08/05 03:50:35;;;;;;;10.55;9.60;;;;;;;16.18;100.00;95514.59;3576985;39;20067;-58
2021/08/05 03:53:03;;;;;;;11.77;8.23;;;;;;;16.19;100.00;95518.78;3588928;39;20050;-58
2021/08/05 03:55:30;;;;;;;10.48;9.00;;;;;;;16.21;100.00;95516.63;3587920;39;20047;-59
2021/08/05 03:57:58;;;;;;;11.18;10.07;;;;;;;16.20;100.00;95512.38;3586896;39;20435;-59
2021/08/05 04:00:25;;;;;;;12.32;8.65;;;;;;;16.18;100.00;95508.47;3588386;39;20049;-59
2021/08/05 04:02:53;;;;;;;9.50;8.57;;;;;;;16.17;100.00;95507.69;3589129;39;20056;-59
2021/08/05 04:05:21;;;;;;;9.90;8.88;;;;;;;16.17;100.00;95506.88;3582187;39;20320;-59
2021/08/05 04:07:49;;;;;;;10.80;9.77;;;;;;;16.15;100.00;95501.88;3580682;39;20040;-59
2021/08/05 04:10:17;;;;;;;9.73;8.73;;;;;;;16.17;100.00;95491.72;3589558;39;20040;-59
2021/08/05 04:12:44;;;;;;;8.50;7.80;;;;;;;16.21;100.00;95494.56;3577675;40;20416;-59
2021/08/05 04:15:12;;;;;;;7.35;6.70;;;;;;;16.19;100.00;95484.19;3570500;39;20056;-58
2021/08/05 04:17:40;;;;;;;7.35;6.68;;;;;;;16.18;100.00;95490.63;3590784;39;20040;-59
2021/08/05 04:20:09;;;;;;;8.77;7.97;;;;;;;16.19;100.00;95494.84;3590873;39;20040;-59
2021/08/05 04:22:37;;;;;;;9.38;8.48;;;;;;;16.19;100.00;95496.72;3588702;39;20047;-59
2021/08/05 04:25:06;;;;;;;11.10;8.25;;;;;;;16.18;100.00;95489.84;3581986;39;20321;-59
2021/08/05 04:27:37;;;;;;;9.07;7.65;;;;;;;16.16;100.00;95487.47;3576307;40;20062;-58
2021/08/05 04:30:13;;;;;;;7.28;6.68;;;;;;;16.17;100.00;95483.75;3582220;39;20044;-59
2021/08/05 04:32:42;;;;;;;11.55;7.82;;;;;;;16.18;100.00;95480.00;3579010;40;20048;-59
2021/08/05 04:35:11;;;;;;;7.40;6.70;;;;;;;16.21;100.00;95479.38;3580757;39;20040;-59
2021/08/05 04:37:57;;;;;;;9.05;7.72;;;;;;;16.22;100.00;95464.97;3583183;39;20046;-59
2021/08/05 04:40:27;;;;;;;11.70;8.90;;;;;;;16.20;100.00;95456.50;3579024;39;20062;-59
2021/08/05 04:42:55;;;;;;;8.15;7.35;;;;;;;16.22;100.00;95451.66;3575412;39;20051;-59
2021/08/05 04:45:24;;;;;;;9.57;8.68;;;;;;;16.26;100.00;95452.66;3590168;39;20465;-59
2021/08/05 04:48:00;;;;;;;8.27;7.47;;;;;;;16.29;100.00;95437.94;3581585;39;20048;-58
2021/08/05 04:50:34;;;;;;;9.55;8.60;;;;;;;16.33;100.00;95441.56;3572771;40;20055;-58
2021/08/05 04:53:03;;;;;;;10.90;9.80;;;;;;;16.37;100.00;95428.44;3580074;40;20048;-58
2021/08/05 04:55:31;;;;;;;9.18;8.38;;;;;;;16.39;100.00;95426.25;3570043;39;20054;-58
2021/08/05 04:58:00;;;;;;;8.73;7.95;;;;;;;16.39;100.00;95427.03;3582236;39;20050;-58
2021/08/05 05:00:31;;;;;;;7.32;6.53;;;;;;;16.44;100.00;95423.44;3588989;39;20048;-58
2021/08/05 05:02:58;;;;;;;9.35;7.78;;;;;;;16.48;100.00;95424.41;3581189;39;20386;-58
2021/08/05 05:05:28;;;;;;;9.90;6.97;;;;;;;16.55;100.00;95422.09;3583165;39;20052;-58
2021/08/05 05:07:56;;;;;;;11.43;8.38;;;;;;;16.58;100.00;95412.72;3588586;39;20053;-58
2021/08/05 05:10:24;;;;;;;6.72;6.13;;;;;;;16.58;100.00;95423.38;3585719;39;20074;-58
2021/08/05 05:12:52;;;;;;;9.45;6.65;;;;;;;16.59;100.00;95424.97;3588015;39;20058;-59
2021/08/05 05:15:20;;;;;;;6.88;6.25;;;;;;;16.58;98.91;95418.84;3590589;39;20312;-61
2021/08/05 05:17:47;;;;;;;7.03;6.43;;;;;;;16.65;99.15;95420.28;3587836;39;20062;-59
2021/08/05 05:20:15;;;;;;;7.05;6.45;;;;;;;16.68;99.21;95414.31;3590286;39;20048;-58
2021/08/05 05:22:43;;;;;;;6.90;6.22;;;;;;;16.72;99.55;95416.09;3589487;39;20333;-59
2021/08/05 05:25:12;;;;;;;9.65;8.35;;;;;;;16.73;99.38;95416.88;3587383;39;20051;-58
2021/08/05 05:27:42;;;;;;;8.70;6.90;;;;;;;16.73;98.59;95414.19;3586156;39;20060;-58
2021/08/05 05:30:11;;;;;;;8.43;7.70;;;;;;;16.72;99.88;95421.41;3588411;39;20085;-58
2021/08/05 05:32:39;;;;;;;7.78;7.13;;;;;;;16.75;100.00;95420.00;3586371;39;20048;-58
2021/08/05 05:35:07;;;;;;;8.27;7.43;;;;;;;16.75;100.00;95417.34;3588160;39;20058;-58
2021/08/05 05:37:35;;;;;;;7.80;7.10;;;;;;;16.75;100.00;95417.34;3588312;39;20055;-57
2021/08/05 05:40:04;;;;;;;6.38;5.78;;;;;;;16.76;100.00;95414.38;3588492;39;20054;-58
2021/08/05 05:42:33;;;;;;;6.88;6.28;;;;;;;16.74;100.00;95405.13;3585697;39;20048;-58
2021/08/05 05:45:03;;;;;;;7.50;6.80;;;;;;;16.73;100.00;95404.34;3588105;39;20059;-57
2021/08/05 05:47:30;;;;;;;10.55;7.90;;;;;;;16.71;100.00;95411.06;3588924;39;20056;-58
2021/08/05 05:49:58;;;;;;;7.00;6.43;;;;;;;16.73;100.00;95407.00;3580337;39;20077;-58
2021/08/05 05:52:26;;;;;;;9.82;8.93;;;;;;;16.76;100.00;95408.25;3588608;39;20059;-57
2021/08/05 05:54:53;;;;;;;9.35;8.48;;;;;;;16.75;100.00;95396.03;3588268;39;20052;-58
2021/08/05 05:57:21;;;;;;;7.93;7.25;;;;;;;16.74;100.00;95400.56;3588088;39;20050;-58
2021/08/05 05:59:49;;;;;;;8.05;7.18;;;;;;;16.75;100.00;95385.38;3584422;39;20046;-58
2021/08/05 06:02:16;;;;;;;10.75;7.53;;;;;;;16.78;100.00;95386.63;3589283;39;20156;-59
2021/08/05 06:04:44;;;;;;;11.93;8.38;;;;;;;16.80;100.00;95377.25;3585624;39;20064;-59
2021/08/05 06:07:11;;;;;;;12.15;7.18;;;;;;;16.80;100.00;95371.91;3590351;39;20056;-59
2021/08/05 06:09:39;;;;;;;8.77;8.00;;;;;;;16.84;100.00;95388.84;3586088;39;20041;-59
2021/08/05 06:12:07;;;;;;;7.57;6.82;;;;;;;16.85;100.00;95392.31;3592015;39;20048;-59
2021/08/05 06:14:35;;;;;;;7.68;6.90;;;;;;;16.89;100.00;95382.59;3586561;39;20439;-59
2021/08/05 06:17:03;;;;;;;7.95;6.55;;;;;;;16.93;100.00;95386.22;3593272;39;20056;-59
2021/08/05 06:19:30;;;;;;;8.25;7.53;;;;;;;16.86;100.00;95381.34;3590687;39;20083;-58
2021/08/05 06:21:58;;;;;;;6.85;6.20;;;;;;;16.89;100.00;95380.72;3592051;39;20048;-59
2021/08/05 06:24:26;;;;;;;8.88;7.15;;;;;;;16.88;100.00;95379.16;3581656;39;20056;-59
2021/08/05 06:26:54;;;;;;;7.70;6.75;;;;;;;16.80;100.00;95381.78;3588682;39;20055;-59
2021/08/05 06:29:28;;;;;;;8.63;7.05;;;;;;;16.67;100.00;95378.16;3592503;39;20319;-59
2021/08/05 06:31:57;;;;;;;6.55;5.93;;;;;;;16.73;99.71;95383.03;3590464;39;20055;-59
2021/08/05 06:34:24;;;;;;;6.43;5.82;;;;;;;16.79;99.45;95380.22;3583698;39;20048;-60
2021/08/05 06:36:53;;;;;;;7.15;6.55;;;;;;;16.82;98.35;95380.38;3579696;39;20049;-61
2021/08/05 06:39:20;;;;;;;7.65;6.63;;;;;;;16.85;100.00;95382.44;3587506;39;20054;-60
2021/08/05 06:41:48;;;;;;;8.15;7.03;;;;;;;16.82;100.00;95380.38;3591642;39;20060;-60
2021/08/05 06:44:16;;;;;;;7.45;6.68;;;;;;;16.80;100.00;95382.56;3593383;39;20044;-60
2021/08/05 06:46:43;;;;;;;8.48;7.68;;;;;;;16.79;100.00;95393.53;3580289;39;20056;-60
2021/08/05 06:49:11;;;;;;;9.43;8.40;;;;;;;16.75;100.00;95391.47;3588311;39;20050;-60
2021/08/05 06:51:39;;;;;;;9.98;8.88;;;;;;;16.75;100.00;95396.03;3578755;39;20057;-60
2021/08/05 06:54:07;;;;;;;13.73;10.02;;;;;;;16.70;100.00;95410.28;3578112;39;20053;-60
2021/08/05 06:56:35;;;;;;;11.95;10.68;;;;;;;16.68;100.00;95398.34;3590203;39;20413;-60
2021/08/05 06:59:02;;;;;;;9.88;7.88;;;;;;;16.69;100.00;95399.91;3579908;39;20048;-60
2021/08/05 07:01:30;;;;;;;10.57;8.43;;;;;;;16.70;100.00;95404.16;3583581;39;20044;-59
2021/08/05 07:04:01;;;;;;;9.30;8.38;;;;;;;16.71;100.00;95403.88;3590763;39;20058;-59
2021/08/05 07:06:28;;;;;;;11.35;10.15;;;;;;;16.75;100.00;95388.03;3590801;39;20044;-59
2021/08/05 07:08:56;;;;;;;10.32;7.88;;;;;;;16.73;100.00;95371.59;3591621;39;20090;-59
2021/08/05 07:11:24;;;;;;;13.10;11.20;;;;;;;16.77;100.00;95377.88;3592098;39;20043;-59
2021/08/05 07:13:53;;;;;;;18.10;10.68;;;;;;;16.75;100.00;95378.16;3587280;39;20044;-59
2021/08/05 07:16:20;;;;;;;11.20;9.32;;;;;;;16.73;100.00;95377.72;3587322;39;21009;-59
2021/08/05 07:18:48;;;;;;;8.32;7.60;;;;;;;16.70;100.00;95372.19;3592173;39;20044;-59
2021/08/05 07:21:16;;;;;;;9.20;8.40;;;;;;;16.67;100.00;95368.28;3586187;39;20054;-59
2021/08/05 07:23:44;;;;;;;10.45;9.55;;;;;;;16.71;100.00;95363.13;3591652;39;20044;-59
2021/08/05 07:26:12;;;;;;;10.15;9.32;;;;;;;16.73;100.00;95360.94;3588105;39;20416;-59
2021/08/05 07:28:39;;;;;;;13.73;10.50;;;;;;;16.74;100.00;95357.19;3592101;39;20052;-59
2021/08/05 07:31:07;;;;;;;13.82;11.75;;;;;;;16.68;100.00;95364.53;3586397;39;20047;-59
2021/08/05 07:33:35;;;;;;;12.73;11.38;;;;;;;16.66;100.00;95366.69;3593716;39;20050;-59
2021/08/05 07:36:03;;;;;;;12.18;9.30;;;;;;;16.67;100.00;95364.84;3593306;39;20543;-59
2021/08/05 07:38:30;;;;;;;13.05;9.43;;;;;;;16.71;100.00;95361.25;3590407;39;20263;-58
2021/08/05 07:40:58;;;;;;;11.10;9.98;;;;;;;16.72;100.00;95354.03;3586946;39;20059;-58
2021/08/05 07:43:26;;;;;;;15.05;13.40;;;;;;;16.71;100.00;95345.28;3589479;39;20048;-59
2021/08/05 07:45:54;;;;;;;12.13;9.13;;;;;;;16.71;100.00;95355.13;3583037;39;20320;-60
2021/08/05 07:48:22;;;;;;;9.45;8.27;;;;;;;16.78;100.00;95352.81;3591492;39;20052;-60
2021/08/05 07:50:50;;;;;;;11.18;9.80;;;;;;;16.75;100.00;95342.78;3586567;39;20061;-60
2021/08/05 07:53:17;;;;;;;13.35;10.80;;;;;;;16.79;100.00;95343.72;3591050;39;20058;-60
2021/08/05 07:55:45;;;;;;;11.52;10.35;;;;;;;16.84;100.00;95345.47;3587011;39;20043;-60
2021/08/05 07:58:13;;;;;;;12.50;11.40;;;;;;;16.90;100.00;95345.00;3586965;39;20060;-60
2021/08/05 08:00:41;;;;;;;14.23;12.60;;;;;;;17.00;100.00;95340.50;3590723;39;20068;-59
2021/08/05 08:03:11;;;;;;;12.05;9.52;;;;;;;17.05;100.00;95340.34;3590921;39;20050;-59
2021/08/05 08:05:42;;;;;;;10.30;8.15;;;;;;;17.08;100.00;95323.75;3590141;39;20074;-60
2021/08/05 08:08:09;;;;;;;8.68;7.88;;;;;;;17.06;100.00;95331.25;3586282;39;20032;-59
2021/08/05 08:10:37;;;;;;;11.45;9.27;;;;;;;17.08;100.00;95326.41;3590703;39;20031;-59
2021/08/05 08:13:23;;;;;;;11.95;9.25;;;;;;;17.19;100.00;95314.34;3590417;39;20052;-59
2021/08/05 08:15:51;;;;;;;9.98;9.13;;;;;;;17.25;100.00;95311.53;3598194;39;20048;-59
2021/08/05 08:18:19;;;;;;;10.02;9.13;;;;;;;17.33;99.79;95319.53;3589439;39;20050;-59
2021/08/05 08:20:48;;;;;;;9.63;8.05;;;;;;;17.52;100.00;95316.56;3594049;39;20061;-59
2021/08/05 08:23:16;;;;;;;7.88;7.18;;;;;;;17.89;100.00;95310.06;3579857;39;20052;-59
2021/08/05 08:25:43;;;;;;;7.65;6.88;;;;;;;18.28;96.46;95305.56;3598736;39;20053;-58
2021/08/05 08:28:11;;;;;;;8.13;6.72;;;;;;;18.59;92.62;95301.84;3597324;39;20062;-59
2021/08/05 08:30:38;;;;;;;10.25;8.23;;;;;;;18.81;92.98;95297.31;3598011;39;20048;-59
2021/08/05 08:33:06;;;;;;;7.80;6.25;;;;;;;18.98;88.11;95299.13;3599173;39;20055;-59
2021/08/05 08:35:34;;;;;;;7.97;5.88;;;;;;;19.22;86.28;95298.50;3594536;39;20060;-63
2021/08/05 08:38:03;;;;;;;7.55;5.57;;;;;;;19.41;85.57;95292.69;3599167;39;20054;-60
2021/08/05 08:40:31;;;;;;;7.63;5.95;;;;;;;19.47;80.50;95294.03;3585448;39;20171;-60
2021/08/05 08:42:58;;;;;;;11.55;5.80;;;;;;;19.39;82.44;95296.75;3593643;39;20078;-60
2021/08/05 08:45:27;;;;;;;9.05;5.97;;;;;;;19.25;83.17;95295.16;3579405;39;20045;-60
2021/08/05 08:47:55;;;;;;;7.63;6.55;;;;;;;19.22;85.13;95287.78;3599558;39;20066;-59
2021/08/05 08:50:34;;;;;;;7.35;5.47;;;;;;;19.31;82.84;95279.72;3594414;39;20052;-58
2021/08/05 08:53:08;;;;;;;8.15;7.25;;;;;;;19.48;81.82;95284.13;3587582;39;20334;-58
2021/08/05 08:55:41;;;;;;;7.35;6.18;;;;;;;19.72;80.66;95274.63;3598304;39;20048;-59
2021/08/05 08:58:10;;;;;;;5.65;5.15;;;;;;;19.72;78.43;95269.25;3597017;39;20046;-59
2021/08/05 09:00:42;;;;;;;7.97;6.20;;;;;;;19.78;79.53;95274.06;3589706;39;20052;-58
2021/08/05 09:03:11;;;;;;;9.73;6.43;;;;;;;19.86;80.12;95271.63;3598560;39;20061;-59
2021/08/05 09:05:41;;;;;;;9.52;6.47;;;;;;;19.82;78.28;95258.13;3594210;39;20044;-58
2021/08/05 09:08:09;;;;;;;7.32;6.57;;;;;;;19.85;78.69;95265.50;3598227;39;20068;-59
2021/08/05 09:10:37;;;;;;;5.53;5.03;;;;;;;19.96;77.52;95269.34;3591744;39;20070;-59
2021/08/05 09:13:07;;;;;;;6.75;4.63;;;;;;;20.05;74.80;95255.88;3585921;39;20054;-59
2021/08/05 09:15:38;;;;;;;5.57;4.88;;;;;;;20.15;74.08;95253.88;3591431;39;20332;-59
2021/08/05 09:18:24;;;;;;;5.82;5.28;;;;;;;20.25;77.20;95254.19;3590524;39;20066;-59
2021/08/05 09:21:21;;;;;;;7.03;5.35;;;;;;;20.25;74.75;95240.81;3591920;39;20058;-61
2021/08/05 09:23:59;;;;;;;5.63;5.18;;;;;;;20.49;75.93;95247.28;3582911;39;20054;-59
2021/08/05 09:26:27;;;;;;;5.90;5.18;;;;;;;20.62;76.89;95240.00;3591804;39;20125;-59
2021/08/05 09:29:12;;;;;;;7.60;5.95;;;;;;;20.85;74.30;95236.88;3589997;39;20058;-58
2021/08/05 09:32:03;;;;;;;5.90;5.25;;;;;;;21.04;73.22;95234.38;3590237;39;20054;-59
2021/08/05 09:34:36;;;;;;;7.45;4.90;;;;;;;21.08;73.14;95223.75;3594209;39;20050;-58
2021/08/05 09:37:09;;;;;;;7.13;6.13;;;;;;;20.96;75.17;95221.88;3592009;39;20059;-58
2021/08/05 09:39:39;;;;;;;7.40;6.05;;;;;;;20.92;73.78;95234.41;3590925;39;20050;-58
2021/08/05 09:42:09;;;;;;;5.95;5.38;;;;;;;20.78;74.56;95225.97;3586835;39;20051;-58
2021/08/05 09:44:37;;;;;;;6.53;5.97;;;;;;;20.63;73.86;95230.06;3582785;39;20051;-59
2021/08/05 09:47:11;;;;;;;7.30;5.20;;;;;;;20.44;75.68;95228.75;3585046;39;20044;-59
2021/08/05 09:49:52;;;;;;;7.75;6.60;;;;;;;20.28;76.47;95226.75;3583725;39;20061;-59
2021/08/05 09:52:29;;;;;;;6.88;6.28;;;;;;;20.16;77.58;95216.03;3588591;39;20059;-58
2021/08/05 09:54:58;;;;;;;7.60;6.70;;;;;;;20.01;78.92;95227.41;3586741;39;20435;-59
2021/08/05 09:57:29;;;;;;;6.45;5.75;;;;;;;19.83;79.49;95225.69;3586334;39;20044;-60
2021/08/05 10:00:03;;;;;;;9.88;6.80;;;;;;;19.73;79.82;95217.31;3592864;39;20053;-59
2021/08/05 10:02:51;;;;;;;9.98;5.57;;;;;;;19.51;82.08;95211.22;3591695;39;20040;-58
2021/08/05 10:05:22;;;;;;;6.70;6.00;;;;;;;19.43;82.03;95214.78;3597041;39;20059;-58
2021/08/05 10:07:56;;;;;;;7.07;6.43;;;;;;;19.34;82.48;95207.63;3571346;39;20356;-58
2021/08/05 10:10:26;;;;;;;8.32;6.50;;;;;;;19.27;82.89;95211.94;3595110;39;20042;-58
2021/08/05 10:13:01;;;;;;;8.18;7.38;;;;;;;19.13;83.45;95202.31;3586456;39;20052;-58
2021/08/05 10:15:29;;;;;;;7.53;6.07;;;;;;;19.09;84.63;95200.63;3591111;39;20047;-59
2021/08/05 10:17:59;;;;;;;9.10;6.75;;;;;;;19.02;85.73;95201.16;3590124;39;20378;-58
2021/08/05 10:20:30;;;;;;;7.85;7.05;;;;;;;18.98;86.28;95193.00;3586903;39;20069;-59
2021/08/05 10:22:58;;;;;;;8.35;7.18;;;;;;;18.97;86.28;95186.09;3590943;39;20485;-59
2021/08/05 10:25:27;;;;;;;8.70;7.75;;;;;;;18.94;86.55;95177.97;3586742;39;20556;-59
2021/08/05 10:27:58;;;;;;;8.02;7.28;;;;;;;18.85;88.27;95170.75;3589115;39;20048;-59
2021/08/05 10:30:25;;;;;;;9.65;8.70;;;;;;;18.77;90.06;95168.16;3594484;39;20052;-59
2021/08/05 10:32:55;;;;;;;10.43;8.88;;;;;;;18.68;91.54;95166.31;3590833;39;20058;-60
2021/08/05 10:35:24;;;;;;;8.68;7.82;;;;;;;18.65;93.12;95153.63;3587402;39;20387;-60
2021/08/05 10:37:52;;;;;;;9.20;8.40;;;;;;;18.61;93.76;95147.38;3588261;39;20856;-59
2021/08/05 10:40:20;;;;;;;12.52;9.05;;;;;;;18.68;91.93;95144.19;3588937;39;20066;-59
2021/08/05 10:42:49;;;;;;;11.50;10.40;;;;;;;18.75;92.93;95139.88;3580458;39;20062;-59
2021/08/05 10:45:18;;;;;;;10.98;9.95;;;;;;;18.93;90.45;95146.97;3586850;39;20153;-58
2021/08/05 10:47:48;;;;;;;9.80;8.38;;;;;;;19.19;91.24;95142.19;3580511;39;20047;-59
2021/08/05 10:50:20;;;;;;;10.00;8.90;;;;;;;19.49;89.78;95141.25;3590729;39;20093;-59
2021/08/05 10:52:55;;;;;;;9.85;8.85;;;;;;;19.65;87.79;95134.13;3585269;39;20048;-58
2021/08/05 10:55:28;;;;;;;11.30;8.43;;;;;;;19.76;86.04;95125.66;3587415;39;20055;-59
2021/08/05 10:58:19;;;;;;;8.30;7.25;;;;;;;19.90;84.08;95126.13;3591011;39;20050;-58
2021/08/05 11:00:54;;;;;;;7.15;6.47;;;;;;;19.95;82.65;95119.78;3582027;39;20044;-58
2021/08/05 11:03:32;;;;;;;16.35;8.18;;;;;;;20.02;82.36;95111.97;3584588;39;20066;-58
2021/08/05 11:06:02;;;;;;;8.10;7.40;;;;;;;20.14;82.26;95100.44;3588355;39;20048;-59
2021/08/05 11:08:30;;;;;;;9.07;8.25;;;;;;;20.21;81.64;95100.69;3588862;39;20106;-59
2021/08/05 11:11:23;;;;;;;9.05;7.60;;;;;;;20.36;79.39;95093.84;3589342;39;20040;-59
2021/08/05 11:14:00;;;;;;;8.75;8.00;;;;;;;20.45;78.47;95083.00;3590937;39;20048;-59
2021/08/05 11:16:53;;;;;;;7.75;7.05;;;;;;;20.59;77.24;95085.28;3587046;39;20259;-59
2021/08/05 11:19:24;;;;;;;8.73;7.85;;;;;;;20.65;77.83;95086.59;3589312;39;20402;-59
2021/08/05 11:21:54;;;;;;;9.07;8.13;;;;;;;20.66;77.78;95077.44;3592536;39;20052;-65
2021/08/05 11:24:47;;;;;;;8.88;7.95;;;;;;;20.61;78.58;95068.88;3581674;40;20060;-58
2021/08/05 11:27:21;;;;;;;9.63;8.73;;;;;;;20.60;77.87;95073.44;3591014;39;20339;-59
2021/08/05 11:29:49;;;;;;;10.68;9.30;;;;;;;20.61;77.95;95058.16;3589275;39;20316;-59
2021/08/05 11:32:20;;;;;;;11.93;10.73;;;;;;;20.67;76.01;95059.47;3576044;39;20400;-59
2021/08/05 11:34:54;;;;;;;11.93;10.90;;;;;;;20.59;76.77;95050.44;3592105;39;20054;-59
2021/08/05 11:37:24;;;;;;;12.70;11.30;;;;;;;20.63;77.30;95045.97;3588241;39;20051;-58
2021/08/05 11:39:59;;;;;;;12.07;11.00;;;;;;;20.66;76.78;95045.28;3581502;39;20032;-59